createdAt,value
2017-05-24T00:00:01.337Z,34.36
2017-05-24T00:01:11.614Z,34.65
2017-05-24T00:02:21.843Z,34.45
2017-05-24T00:03:32.339Z,34.55
2017-05-24T00:04:41.946Z,34.65
2017-05-24T00:05:51.849Z,34.55
2017-05-24T00:07:01.454Z,34.54
2017-05-24T00:08:11.060Z,34.45
2017-05-24T00:09:21.284Z,34.55
2017-05-24T00:10:30.591Z,34.65
2017-05-24T00:11:39.591Z,34.55
2017-05-24T00:12:49.197Z,34.45
2017-05-24T00:13:59.116Z,34.55
2017-05-24T00:15:09.349Z,34.36
2017-05-24T00:16:19.269Z,34.34
2017-05-24T00:17:28.875Z,34.54
2017-05-24T00:18:38.807Z,34.27
2017-05-24T00:19:48.415Z,34.27
2017-05-24T00:20:57.421Z,34.27
2017-05-24T00:22:07.013Z,34.75
2017-05-24T00:23:16.697Z,34.75
2017-05-24T00:24:26.615Z,34.27
2017-05-24T00:25:36.825Z,34.36
2017-05-24T00:26:47.447Z,34.75
2017-05-24T00:27:57.662Z,34.36
2017-05-24T00:29:07.264Z,34.75
2017-05-24T00:30:17.216Z,34.17
2017-05-24T00:31:26.544Z,34.73
2017-05-24T00:32:36.165Z,34.65
2017-05-24T00:33:45.783Z,34.45
2017-05-24T00:34:56.084Z,34.65
2017-05-24T00:36:05.718Z,34.73
2017-05-24T00:37:15.325Z,34.84
2017-05-24T00:38:24.954Z,34.75
2017-05-24T00:39:34.563Z,34.36
2017-05-24T00:40:44.472Z,34.84
2017-05-24T00:41:54.081Z,34.45
2017-05-24T00:43:03.369Z,34.45
2017-05-24T00:44:12.990Z,34.45
2017-05-24T00:45:22.622Z,34.36
2017-05-24T00:46:31.621Z,34.34
2017-05-24T00:47:41.918Z,34.84
2017-05-24T00:48:51.561Z,34.45
2017-05-24T00:50:01.811Z,34.94
2017-05-24T00:51:11.759Z,34.36
2017-05-24T00:52:21.713Z,34.45
2017-05-24T00:53:31.026Z,34.36
2017-05-24T00:54:40.637Z,34.36
2017-05-24T00:55:49.990Z,34.36
2017-05-24T00:56:59.933Z,35.13
2017-05-24T00:58:09.848Z,34.45
2017-05-24T00:59:19.758Z,34.65
2017-05-24T01:00:29.060Z,34.65
2017-05-24T01:01:38.994Z,34.65
2017-05-24T01:02:48.618Z,34.65
2017-05-24T01:03:57.918Z,34.65
2017-05-24T01:05:07.859Z,34.65
2017-05-24T01:06:17.784Z,34.55
2017-05-24T01:07:27.390Z,34.65
2017-05-24T01:08:37.331Z,34.65
2017-05-24T01:09:46.943Z,34.55
2017-05-24T01:10:57.179Z,34.44
2017-05-24T01:12:07.136Z,34.55
2017-05-24T01:13:17.048Z,34.63
2017-05-24T01:14:26.967Z,34.45
2017-05-24T01:15:36.877Z,34.63
2017-05-24T01:16:46.793Z,34.54
2017-05-24T01:17:57.003Z,34.45
2017-05-24T01:19:07.215Z,34.45
2017-05-24T01:20:17.439Z,34.45
2017-05-24T01:21:27.049Z,34.65
2017-05-24T01:22:37.265Z,34.54
2017-05-24T01:23:46.884Z,34.55
2017-05-24T01:24:56.492Z,34.55
2017-05-24T01:26:06.719Z,34.65
2017-05-24T01:27:16.619Z,34.63
2017-05-24T01:28:26.845Z,34.55
2017-05-24T01:32:15.362Z,34.73
2017-05-24T01:33:24.968Z,34.65
2017-05-24T01:34:35.200Z,34.63
2017-05-24T01:35:44.514Z,34.73
2017-05-24T01:36:54.432Z,34.63
2017-05-24T01:38:04.658Z,34.65
2017-05-24T01:39:14.583Z,34.54
2017-05-24T01:40:24.505Z,34.75
2017-05-24T01:41:34.119Z,34.63
2017-05-24T01:42:44.070Z,34.83
2017-05-24T01:43:54.044Z,34.73
2017-05-24T01:45:04.432Z,34.63
2017-05-24T01:46:14.031Z,34.65
2017-05-24T01:47:23.950Z,34.65
2017-05-24T01:48:33.604Z,34.73
2017-05-24T01:49:43.221Z,34.63
2017-05-24T01:50:53.473Z,34.92
2017-05-24T01:52:03.395Z,34.83
2017-05-24T01:53:13.619Z,34.94
2017-05-24T01:54:23.545Z,34.92
2017-05-24T01:55:33.771Z,34.94
2017-05-24T01:56:43.075Z,34.92
2017-05-24T01:57:53.005Z,34.83
2017-05-24T01:59:02.937Z,34.92
2017-05-24T02:00:12.857Z,35.31
2017-05-24T02:01:22.785Z,35.31
2017-05-24T02:02:32.392Z,35.21
2017-05-24T02:03:42.615Z,35.31
2017-05-24T02:04:52.550Z,35.21
2017-05-24T02:06:02.830Z,35.41
2017-05-24T02:07:12.457Z,35.31
2017-05-24T02:08:22.374Z,35.31
2017-05-24T02:09:31.996Z,35.31
2017-05-24T02:10:42.230Z,35.31
2017-05-24T02:11:51.858Z,35.31
2017-05-24T02:13:01.783Z,35.31
2017-05-24T02:14:11.710Z,35.12
2017-05-24T02:15:21.941Z,35.12
2017-05-24T02:16:31.872Z,35.21
2017-05-24T02:17:41.788Z,35.31
2017-05-24T02:18:52.023Z,35.21
2017-05-24T02:20:01.802Z,35.31
2017-05-24T02:21:11.116Z,35.21
2017-05-24T02:22:21.035Z,35.31
2017-05-24T02:23:30.961Z,35.21
2017-05-24T02:24:40.574Z,35.31
2017-05-24T02:25:50.190Z,35.31
2017-05-24T02:27:00.108Z,35.31
2017-05-24T02:28:09.728Z,35.21
2017-05-24T02:29:19.362Z,35.31
2017-05-24T02:30:28.971Z,35.21
2017-05-24T02:31:38.574Z,35.31
2017-05-24T02:32:48.167Z,35.31
2017-05-24T02:33:58.397Z,35.21
2017-05-24T02:35:08.007Z,35.33
2017-05-24T02:36:17.646Z,35.21
2017-05-24T02:37:27.929Z,35.21
2017-05-24T02:38:37.596Z,35.21
2017-05-24T02:39:47.212Z,35.21
2017-05-24T02:40:56.825Z,35.21
2017-05-24T02:42:06.745Z,35.21
2017-05-24T02:43:16.356Z,35.21
2017-05-24T02:44:26.582Z,35.21
2017-05-24T02:45:36.819Z,35.21
2017-05-24T02:46:46.110Z,35.12
2017-05-24T02:47:56.036Z,35.21
2017-05-24T02:49:05.807Z,35.12
2017-05-24T02:50:15.422Z,35.12
2017-05-24T02:51:25.650Z,35.21
2017-05-24T02:52:35.260Z,35.21
2017-05-24T02:53:44.882Z,35.21
2017-05-24T02:54:54.511Z,35.21
2017-05-24T02:56:04.433Z,35.12
2017-05-24T02:57:14.050Z,35.02
2017-05-24T02:58:23.961Z,35.02
2017-05-24T02:59:34.184Z,35.12
2017-05-24T03:00:43.795Z,35.21
2017-05-24T03:01:53.414Z,35.31
2017-05-24T03:03:03.353Z,35.12
2017-05-24T03:04:12.956Z,35.12
2017-05-24T03:05:22.870Z,35.12
2017-05-24T03:06:32.489Z,35.21
2017-05-24T03:07:41.812Z,35.21
2017-05-24T03:08:51.450Z,35.21
2017-05-24T03:10:01.372Z,35.21
2017-05-24T03:11:11.611Z,35.02
2017-05-24T03:12:21.611Z,35.21
2017-05-24T03:13:31.538Z,35.21
2017-05-24T03:14:41.152Z,35.31
2017-05-24T03:15:51.413Z,35.31
2017-05-24T03:17:01.645Z,35.12
2017-05-24T03:18:11.296Z,35.21
2017-05-24T03:19:21.206Z,35.21
2017-05-24T03:20:30.253Z,35.31
2017-05-24T03:21:40.483Z,35.41
2017-05-24T03:22:50.420Z,35.21
2017-05-24T03:24:00.349Z,35.21
2017-05-24T03:25:10.576Z,35.21
2017-05-24T03:26:20.565Z,35.31
2017-05-24T03:27:30.493Z,35.31
2017-05-24T03:28:40.106Z,35.21
2017-05-24T03:29:50.040Z,35.21
2017-05-24T03:30:59.658Z,35.31
2017-05-24T03:32:09.926Z,35.21
2017-05-24T03:33:19.941Z,35.12
2017-05-24T03:34:29.555Z,35.31
2017-05-24T03:35:39.802Z,35.31
2017-05-24T03:36:50.024Z,35.12
2017-05-24T03:37:59.658Z,35.31
2017-05-24T03:39:09.875Z,35.21
2017-05-24T03:40:20.108Z,35.12
2017-05-24T03:41:30.355Z,35.12
2017-05-24T03:42:40.267Z,35.21
2017-05-24T03:43:49.889Z,35.12
2017-05-24T03:44:59.841Z,35.31
2017-05-24T03:46:10.111Z,35.12
2017-05-24T03:47:19.744Z,35.12
2017-05-24T03:48:29.991Z,35.21
2017-05-24T03:49:39.928Z,35.12
2017-05-24T03:50:49.863Z,35.41
2017-05-24T03:51:59.476Z,35.31
2017-05-24T03:53:10.235Z,35.21
2017-05-24T03:54:20.456Z,35.41
2017-05-24T03:55:30.081Z,35.31
2017-05-24T03:56:40.006Z,35.41
2017-05-24T03:57:49.626Z,35.21
2017-05-24T03:58:59.592Z,35.41
2017-05-24T04:00:09.204Z,35.41
2017-05-24T04:01:19.132Z,35.41
2017-05-24T04:02:28.743Z,35.31
2017-05-24T04:03:38.972Z,35.41
2017-05-24T04:04:48.889Z,35.41
2017-05-24T04:05:59.124Z,35.41
2017-05-24T04:07:09.035Z,35.31
2017-05-24T04:08:19.271Z,35.31
2017-05-24T04:09:29.218Z,35.31
2017-05-24T04:10:38.836Z,35.31
2017-05-24T04:11:48.455Z,35.31
2017-05-24T04:12:58.097Z,35.31
2017-05-24T04:14:08.353Z,35.31
2017-05-24T04:15:18.265Z,35.31
2017-05-24T04:16:28.183Z,35.12
2017-05-24T04:17:37.500Z,35.41
2017-05-24T04:18:47.415Z,35.12
2017-05-24T04:19:57.350Z,35.41
2017-05-24T04:21:07.273Z,35.12
2017-05-24T04:22:17.214Z,35.41
2017-05-24T04:23:27.437Z,35.21
2017-05-24T04:24:37.677Z,35.21
2017-05-24T04:25:47.595Z,35.5
2017-05-24T04:26:57.822Z,35.31
2017-05-24T04:28:08.051Z,35.41
2017-05-24T04:29:17.971Z,35.41
2017-05-24T04:30:27.589Z,35.41
2017-05-24T04:31:37.225Z,35.33
2017-05-24T04:32:46.541Z,35.21
2017-05-24T04:33:56.767Z,35.12
2017-05-24T04:35:06.698Z,35.23
2017-05-24T04:36:16.297Z,35.12
2017-05-24T04:37:26.216Z,35.33
2017-05-24T04:38:36.138Z,35.33
2017-05-24T04:39:46.069Z,35.13
2017-05-24T04:40:55.676Z,35.33
2017-05-24T04:42:05.603Z,35.23
2017-05-24T04:43:15.831Z,35.23
2017-05-24T04:44:25.773Z,35.33
2017-05-24T04:45:35.689Z,35.33
2017-05-24T04:46:45.607Z,35.13
2017-05-24T04:47:55.840Z,35.23
2017-05-24T04:49:05.762Z,35.13
2017-05-24T04:50:15.380Z,35.02
2017-05-24T04:51:25.390Z,35.02
2017-05-24T04:52:34.996Z,35.33
2017-05-24T04:53:45.224Z,35.13
2017-05-24T04:54:54.839Z,35.13
2017-05-24T04:56:04.457Z,35.13
2017-05-24T04:57:14.683Z,35.13
2017-05-24T04:58:24.289Z,35.23
2017-05-24T04:59:33.592Z,35.23
2017-05-24T05:00:43.521Z,35.33
2017-05-24T05:01:53.458Z,35.23
2017-05-24T05:03:03.057Z,35.33
2017-05-24T05:04:12.381Z,35.23
2017-05-24T05:05:22.314Z,35.33
2017-05-24T05:06:32.237Z,35.13
2017-05-24T05:07:42.155Z,35.33
2017-05-24T05:08:51.769Z,35.33
2017-05-24T05:10:01.679Z,35.33
2017-05-24T05:11:11.274Z,35.23
2017-05-24T05:12:21.502Z,35.33
2017-05-24T05:13:31.709Z,35.23
2017-05-24T05:14:41.638Z,35.23
2017-05-24T05:15:51.549Z,35.23
2017-05-24T05:17:01.480Z,35.23
2017-05-24T05:18:11.411Z,35.23
2017-05-24T05:19:21.335Z,35.23
2017-05-24T05:20:31.069Z,35.13
2017-05-24T05:21:41.301Z,35.33
2017-05-24T05:22:51.225Z,35.42
2017-05-24T05:24:01.223Z,34.84
2017-05-24T05:25:10.860Z,34.65
2017-05-24T05:26:20.184Z,34.75
2017-05-24T05:27:29.543Z,34.57
2017-05-24T05:28:39.146Z,34.67
2017-05-24T05:29:49.404Z,34.38
2017-05-24T05:30:59.648Z,34.77
2017-05-24T05:32:09.911Z,34.57
2017-05-24T05:33:20.160Z,34.47
2017-05-24T05:34:30.386Z,34.67
2017-05-24T05:35:39.999Z,34.57
2017-05-24T05:36:49.906Z,34.38
2017-05-24T05:37:59.209Z,34.3
2017-05-24T05:39:08.507Z,34.49
2017-05-24T05:40:18.749Z,34.49
2017-05-24T05:41:28.691Z,34.49
2017-05-24T05:42:38.639Z,34.2
2017-05-24T05:43:48.555Z,34.2
2017-05-24T05:44:58.165Z,34.11
2017-05-24T05:46:08.111Z,33.81
2017-05-24T05:47:18.041Z,33.91
2017-05-24T05:48:27.360Z,33.73
2017-05-24T05:49:37.766Z,33.92
2017-05-24T05:50:47.086Z,33.44
2017-05-24T05:51:57.330Z,33.92
2017-05-24T05:53:06.626Z,33.83
2017-05-24T05:54:16.563Z,33.44
2017-05-24T05:55:26.469Z,33.34
2017-05-24T05:56:36.713Z,33.44
2017-05-24T05:57:46.938Z,33.64
2017-05-24T05:58:56.609Z,33.54
2017-05-24T06:00:06.240Z,33.34
2017-05-24T06:01:16.456Z,33.25
2017-05-24T06:02:26.697Z,33.44
2017-05-24T06:03:36.352Z,33.25
2017-05-24T06:04:46.306Z,33.26
2017-05-24T06:05:56.274Z,33.26
2017-05-24T06:07:06.197Z,33.17
2017-05-24T06:08:16.428Z,33.17
2017-05-24T06:09:25.746Z,33.17
2017-05-24T06:10:35.983Z,33.36
2017-05-24T06:11:45.917Z,33.07
2017-05-24T06:12:55.536Z,33.26
2017-05-24T06:14:05.466Z,33.26
2017-05-24T06:15:15.085Z,33.46
2017-05-24T06:16:25.028Z,33.26
2017-05-24T06:17:34.655Z,33.46
2017-05-24T06:18:44.587Z,33.36
2017-05-24T06:19:54.209Z,33.56
2017-05-24T06:21:03.830Z,33.75
2017-05-24T06:22:13.758Z,33.56
2017-05-24T06:23:23.366Z,33.26
2017-05-24T06:24:33.283Z,33.26
2017-05-24T06:25:43.494Z,33.46
2017-05-24T06:26:53.410Z,33.54
2017-05-24T06:28:03.028Z,33.65
2017-05-24T06:29:12.647Z,33.34
2017-05-24T06:30:22.639Z,33.84
2017-05-24T06:31:32.571Z,33.73
2017-05-24T06:32:42.503Z,33.73
2017-05-24T06:33:52.426Z,33.34
2017-05-24T06:35:02.042Z,33.83
2017-05-24T06:36:11.367Z,33.92
2017-05-24T06:37:21.600Z,34.22
2017-05-24T06:38:31.857Z,34.22
2017-05-24T06:39:41.456Z,34.22
2017-05-24T06:40:51.064Z,34.31
2017-05-24T06:42:00.989Z,34.12
2017-05-24T06:43:10.317Z,34.12
2017-05-24T06:44:20.241Z,34.51
2017-05-24T06:45:30.187Z,34.61
2017-05-24T06:46:39.797Z,34.51
2017-05-24T06:47:49.412Z,34.41
2017-05-24T06:48:59.688Z,34.41
2017-05-24T06:50:09.292Z,34.41
2017-05-24T06:51:19.263Z,34.31
2017-05-24T06:52:28.894Z,34.61
2017-05-24T06:53:37.603Z,34.61
2017-05-24T06:54:47.544Z,34.59
2017-05-24T06:55:57.501Z,34.59
2017-05-24T06:57:07.415Z,34.69
2017-05-24T06:58:17.346Z,34.39
2017-05-24T06:59:27.265Z,34.49
2017-05-24T07:00:36.885Z,34.78
2017-05-24T07:01:46.521Z,34.69
2017-05-24T07:02:56.868Z,34.69
2017-05-24T07:04:07.114Z,34.49
2017-05-24T07:05:17.349Z,34.49
2017-05-24T07:06:26.666Z,34.49
2017-05-24T07:07:36.590Z,34.49
2017-05-24T07:08:46.511Z,34.78
2017-05-24T07:09:56.423Z,34.3
2017-05-24T07:11:06.354Z,34.69
2017-05-24T07:12:15.973Z,34.88
2017-05-24T07:13:25.898Z,34.49
2017-05-24T07:14:36.124Z,34.39
2017-05-24T07:15:45.425Z,34.59
2017-05-24T07:16:55.042Z,34.31
2017-05-24T07:18:04.670Z,34.31
2017-05-24T07:19:14.636Z,34.31
2017-05-24T07:20:24.890Z,34.41
2017-05-24T07:21:34.813Z,34.41
2017-05-24T07:22:45.046Z,34.41
2017-05-24T07:23:54.994Z,34.61
2017-05-24T07:25:04.620Z,34.22
2017-05-24T07:26:14.558Z,34.12
2017-05-24T07:27:24.798Z,34.22
2017-05-24T07:28:34.424Z,34.22
2017-05-24T07:29:44.368Z,34.22
2017-05-24T07:30:53.983Z,34.61
2017-05-24T07:32:03.923Z,34.61
2017-05-24T07:33:13.879Z,34.41
2017-05-24T07:34:23.862Z,34.41
2017-05-24T07:35:33.781Z,34.41
2017-05-24T07:36:43.414Z,34.31
2017-05-24T07:37:52.423Z,34.51
2017-05-24T07:39:02.666Z,34.22
2017-05-24T07:40:12.589Z,34.51
2017-05-24T07:41:22.832Z,34.51
2017-05-24T07:42:32.158Z,34.61
2017-05-24T07:43:42.115Z,34.51
2017-05-24T07:44:52.348Z,34.51
2017-05-24T07:46:02.601Z,34.61
2017-05-24T07:47:12.832Z,34.51
2017-05-24T07:48:22.454Z,34.41
2017-05-24T07:49:32.391Z,34.41
2017-05-24T07:50:42.345Z,34.7
2017-05-24T07:51:51.653Z,34.31
2017-05-24T07:53:01.569Z,34.41
2017-05-24T07:54:11.511Z,34.61
2017-05-24T07:55:21.741Z,34.41
2017-05-24T07:56:31.352Z,34.41
2017-05-24T07:57:41.634Z,34.8
2017-05-24T07:58:51.566Z,34.3
2017-05-24T08:00:01.501Z,34.8
2017-05-24T08:01:10.499Z,34.51
2017-05-24T08:02:20.424Z,34.39
2017-05-24T08:03:30.358Z,34.88
2017-05-24T08:04:40.294Z,34.88
2017-05-24T08:05:50.534Z,34.49
2017-05-24T08:06:59.537Z,34.59
2017-05-24T08:08:09.456Z,34.59
2017-05-24T08:09:19.376Z,34.59
2017-05-24T08:10:28.983Z,35.07
2017-05-24T08:11:38.593Z,34.78
2017-05-24T08:12:48.223Z,34.69
2017-05-24T08:13:58.150Z,34.78
2017-05-24T08:15:08.385Z,34.78
2017-05-24T08:16:18.006Z,34.88
2017-05-24T08:17:27.924Z,34.78
2017-05-24T08:18:38.158Z,34.88
2017-05-24T08:19:48.072Z,34.88
2017-05-24T08:20:57.687Z,34.88
2017-05-24T08:22:06.687Z,34.78
2017-05-24T08:23:15.746Z,34.78
2017-05-24T08:24:25.691Z,34.88
2017-05-24T08:25:35.617Z,34.78
2017-05-24T08:26:45.232Z,34.78
2017-05-24T08:27:55.151Z,34.78
2017-05-24T08:29:04.529Z,34.69
2017-05-24T08:30:14.775Z,34.59
2017-05-24T08:31:24.384Z,34.59
2017-05-24T08:32:34.318Z,34.88
2017-05-24T08:33:44.556Z,34.49
2017-05-24T08:34:54.176Z,34.8
2017-05-24T08:36:04.413Z,34.7
2017-05-24T08:37:14.339Z,34.7
2017-05-24T08:38:23.645Z,34.51
2017-05-24T08:39:33.569Z,34.61
2017-05-24T08:40:42.883Z,34.61
2017-05-24T08:41:53.113Z,34.7
2017-05-24T08:43:02.436Z,34.61
2017-05-24T08:44:12.692Z,34.22
2017-05-24T08:45:22.630Z,34.61
2017-05-24T08:46:31.934Z,34.61
2017-05-24T08:47:41.871Z,34.51
2017-05-24T08:48:51.811Z,34.7
2017-05-24T08:50:01.790Z,34.41
2017-05-24T08:51:10.819Z,34.51
2017-05-24T08:52:20.740Z,34.61
2017-05-24T08:53:30.357Z,34.7
2017-05-24T08:54:39.967Z,34.31
2017-05-24T08:55:49.906Z,34.41
2017-05-24T08:56:59.850Z,34.41
2017-05-24T08:58:09.779Z,34.61
2017-05-24T08:59:19.414Z,34.61
2017-05-24T09:00:28.724Z,34.31
2017-05-24T09:01:38.334Z,34.61
2017-05-24T09:02:47.943Z,34.7
2017-05-24T09:03:57.561Z,34.61
2017-05-24T09:05:07.484Z,34.61
2017-05-24T09:06:17.095Z,34.61
2017-05-24T09:07:27.336Z,34.22
2017-05-24T09:08:37.259Z,34.61
2017-05-24T09:09:46.885Z,34.51
2017-05-24T09:10:56.821Z,34.41
2017-05-24T09:12:06.745Z,34.51
2017-05-24T09:13:16.057Z,34.41
2017-05-24T09:14:25.361Z,34.51
2017-05-24T09:15:35.301Z,34.41
2017-05-24T09:16:45.525Z,34.41
2017-05-24T09:17:55.771Z,34.51
2017-05-24T09:19:06.056Z,34.61
2017-05-24T09:20:15.680Z,34.7
2017-05-24T09:21:25.597Z,34.51
2017-05-24T09:22:35.525Z,34.89
2017-05-24T09:23:45.140Z,34.41
2017-05-24T09:24:55.075Z,34.8
2017-05-24T09:26:05.016Z,34.31
2017-05-24T09:27:14.940Z,34.51
2017-05-24T09:28:24.578Z,34.31
2017-05-24T09:29:34.192Z,34.61
2017-05-24T09:30:44.459Z,34.41
2017-05-24T09:31:54.099Z,34.41
2017-05-24T09:33:04.015Z,34.7
2017-05-24T09:34:14.253Z,34.7
2017-05-24T09:35:24.175Z,34.51
2017-05-24T09:36:34.111Z,34.61
2017-05-24T09:37:44.266Z,34.51
2017-05-24T09:38:54.502Z,34.12
2017-05-24T09:40:04.119Z,34.12
2017-05-24T09:41:13.723Z,34.31
2017-05-24T09:42:23.937Z,34.41
2017-05-24T09:43:34.183Z,34.62
2017-05-24T09:44:44.420Z,34.62
2017-05-24T09:45:53.733Z,34.62
2017-05-24T09:47:03.957Z,34.23
2017-05-24T09:48:13.889Z,34.23
2017-05-24T09:49:23.511Z,34.23
2017-05-24T09:50:33.423Z,34.23
2017-05-24T09:51:43.664Z,34.33
2017-05-24T09:52:53.590Z,34.23
2017-05-24T09:54:02.902Z,34.33
2017-05-24T09:55:12.827Z,34.23
2017-05-24T09:56:22.747Z,34.23
2017-05-24T09:57:32.985Z,34.23
2017-05-24T09:58:43.212Z,34.33
2017-05-24T09:59:53.153Z,34.23
2017-05-24T10:01:03.082Z,34.14
2017-05-24T10:02:12.406Z,34.23
2017-05-24T10:03:22.637Z,34.14
2017-05-24T10:04:32.624Z,34.23
2017-05-24T10:05:41.952Z,34.04
2017-05-24T10:06:52.209Z,34.53
2017-05-24T10:08:02.148Z,34.62
2017-05-24T10:09:12.388Z,34.33
2017-05-24T10:10:22.350Z,34.33
2017-05-24T10:11:32.334Z,34.22
2017-05-24T10:12:42.278Z,34.7
2017-05-24T10:13:52.510Z,34.51
2017-05-24T10:15:02.746Z,34.41
2017-05-24T10:16:12.981Z,34.51
2017-05-24T10:17:22.352Z,34.41
2017-05-24T10:18:32.283Z,34.61
2017-05-24T10:19:42.224Z,34.41
2017-05-24T10:20:52.168Z,34.61
2017-05-24T10:22:02.403Z,34.41
2017-05-24T10:23:12.328Z,34.31
2017-05-24T10:24:21.953Z,34.31
2017-05-24T10:25:31.882Z,34.31
2017-05-24T10:26:41.880Z,34.51
2017-05-24T10:27:51.827Z,34.31
2017-05-24T10:29:02.128Z,34.8
2017-05-24T10:30:11.785Z,34.8
2017-05-24T10:31:21.460Z,34.89
2017-05-24T10:32:31.406Z,34.51
2017-05-24T10:33:41.697Z,34.31
2017-05-24T10:34:51.965Z,34.8
2017-05-24T10:36:01.910Z,34.89
2017-05-24T10:37:11.542Z,34.8
2017-05-24T10:38:21.172Z,34.41
2017-05-24T10:39:30.789Z,34.41
2017-05-24T10:40:40.709Z,34.99
2017-05-24T10:41:50.662Z,34.61
2017-05-24T10:43:00.603Z,34.61
2017-05-24T10:44:10.854Z,34.51
2017-05-24T10:45:21.090Z,34.61
2017-05-24T10:46:31.020Z,34.41
2017-05-24T10:47:40.947Z,34.61
2017-05-24T10:48:50.947Z,34.51
2017-05-24T10:50:01.180Z,34.41
2017-05-24T10:51:10.849Z,34.61
2017-05-24T10:52:21.164Z,34.51
2017-05-24T10:53:31.400Z,34.89
2017-05-24T10:54:41.324Z,34.7
2017-05-24T10:55:51.298Z,34.8
2017-05-24T10:57:01.520Z,34.7
2017-05-24T10:58:11.441Z,34.8
2017-05-24T10:59:21.363Z,34.7
2017-05-24T11:00:31.280Z,34.7
2017-05-24T11:01:41.207Z,34.41
2017-05-24T11:02:50.511Z,34.51
2017-05-24T11:04:00.128Z,34.7
2017-05-24T11:05:10.372Z,34.61
2017-05-24T11:06:20.608Z,34.51
2017-05-24T11:07:30.229Z,34.7
2017-05-24T11:08:40.189Z,34.8
2017-05-24T11:09:50.115Z,34.8
2017-05-24T11:11:00.347Z,34.89
2017-05-24T11:12:09.955Z,34.89
2017-05-24T11:13:20.211Z,34.89
2017-05-24T11:14:30.133Z,35.38
2017-05-24T11:15:40.356Z,34.99
2017-05-24T11:16:50.274Z,35.28
2017-05-24T11:18:00.217Z,35.38
2017-05-24T11:19:09.851Z,34.99
2017-05-24T11:20:20.086Z,35.28
2017-05-24T11:21:30.328Z,34.99
2017-05-24T11:22:40.269Z,34.89
2017-05-24T11:23:50.193Z,34.8
2017-05-24T11:25:00.112Z,34.8
2017-05-24T11:26:09.426Z,34.7
2017-05-24T11:27:19.355Z,34.89
2017-05-24T11:28:29.272Z,34.7
2017-05-24T11:29:38.880Z,34.8
2017-05-24T11:30:48.503Z,34.7
2017-05-24T11:31:58.437Z,34.99
2017-05-24T11:33:08.351Z,34.89
2017-05-24T11:34:50.059Z,34.89
2017-05-24T11:35:59.988Z,34.99
2017-05-24T11:37:10.218Z,35.48
2017-05-24T11:38:19.844Z,35.38
2017-05-24T11:39:29.774Z,35.38
2017-05-24T11:40:40.039Z,35.38
2017-05-24T11:41:49.663Z,35.38
2017-05-24T11:42:59.586Z,35.28
2017-05-24T11:44:09.048Z,35.19
2017-05-24T11:45:18.967Z,35.28
2017-05-24T11:46:28.280Z,35.19
2017-05-24T11:47:38.531Z,35.17
2017-05-24T11:48:48.773Z,35.38
2017-05-24T11:49:58.746Z,35.27
2017-05-24T11:51:08.665Z,35.28
2017-05-24T11:52:18.588Z,35.19
2017-05-24T11:53:28.520Z,35.09
2017-05-24T11:54:38.451Z,35.19
2017-05-24T11:55:48.390Z,35.28
2017-05-24T11:56:58.307Z,35.19
2017-05-24T11:58:08.221Z,35.28
2017-05-24T11:59:17.843Z,35.19
2017-05-24T12:00:27.783Z,35.28
2017-05-24T12:01:37.089Z,35.19
2017-05-24T12:02:47.317Z,35.09
2017-05-24T12:03:56.627Z,35.28
2017-05-24T12:05:06.550Z,35.28
2017-05-24T12:06:16.172Z,35.28
2017-05-24T12:07:26.396Z,35.19
2017-05-24T12:08:36.005Z,35.28
2017-05-24T12:09:45.618Z,35.28
2017-05-24T12:10:55.239Z,35.19
2017-05-24T12:12:05.155Z,35.28
2017-05-24T12:13:15.138Z,35.38
2017-05-24T12:14:25.405Z,35.48
2017-05-24T12:15:35.393Z,35.38
2017-05-24T12:16:45.674Z,35.38
2017-05-24T12:17:55.295Z,35.48
2017-05-24T12:19:05.520Z,34.99
2017-05-24T12:20:15.749Z,34.89
2017-05-24T12:21:25.656Z,34.7
2017-05-24T12:22:35.884Z,34.7
2017-05-24T12:23:46.098Z,34.8
2017-05-24T12:24:55.869Z,34.89
2017-05-24T12:26:06.096Z,34.8
2017-05-24T12:27:16.014Z,34.8
2017-05-24T12:28:25.941Z,34.7
2017-05-24T12:29:35.556Z,34.61
2017-05-24T12:30:45.493Z,34.89
2017-05-24T12:31:55.413Z,35.48
2017-05-24T12:33:05.637Z,35.38
2017-05-24T12:34:15.268Z,35.48
2017-05-24T12:35:24.587Z,35.38
2017-05-24T12:36:34.371Z,35.38
2017-05-24T12:37:43.983Z,35.28
2017-05-24T12:38:53.903Z,35.38
2017-05-24T12:40:03.842Z,35.38
2017-05-24T12:41:13.762Z,35.38
2017-05-24T12:42:23.780Z,35.38
2017-05-24T12:43:34.011Z,35.38
2017-05-24T12:44:43.622Z,35.38
2017-05-24T12:45:53.243Z,34.99
2017-05-24T12:47:03.153Z,35.48
2017-05-24T12:48:13.230Z,35.38
2017-05-24T12:49:22.850Z,34.99
2017-05-24T12:50:33.075Z,34.99
2017-05-24T12:51:42.694Z,34.99
2017-05-24T12:52:52.636Z,34.99
2017-05-24T12:54:02.878Z,34.99
2017-05-24T12:55:12.801Z,34.99
2017-05-24T12:56:23.028Z,34.8
2017-05-24T12:57:33.280Z,34.8
2017-05-24T12:58:43.515Z,34.8
2017-05-24T12:59:53.436Z,34.7
2017-05-24T13:01:03.373Z,34.7
2017-05-24T13:02:13.039Z,34.8
2017-05-24T13:03:22.335Z,34.8
2017-05-24T13:04:32.268Z,34.8
2017-05-24T13:05:42.343Z,34.8
2017-05-24T13:06:51.968Z,34.7
2017-05-24T13:08:01.278Z,34.8
2017-05-24T13:09:10.284Z,34.8
2017-05-24T13:10:20.225Z,34.8
2017-05-24T13:11:30.593Z,34.8
2017-05-24T13:12:40.208Z,34.61
2017-05-24T13:13:49.823Z,34.61
2017-05-24T13:14:59.751Z,34.7
2017-05-24T13:16:09.387Z,34.7
2017-05-24T13:17:19.355Z,34.7
2017-05-24T13:18:28.345Z,34.8
2017-05-24T13:19:37.966Z,34.61
2017-05-24T13:20:48.213Z,34.7
2017-05-24T13:21:57.821Z,34.51
2017-05-24T13:23:07.903Z,34.61
2017-05-24T13:24:17.826Z,34.7
2017-05-24T13:25:27.784Z,34.61
2017-05-24T13:26:38.009Z,34.7
2017-05-24T13:27:47.328Z,34.8
2017-05-24T13:28:57.573Z,34.7
2017-05-24T13:30:07.811Z,34.89
2017-05-24T13:31:17.434Z,34.8
2017-05-24T13:32:27.377Z,34.99
2017-05-24T13:33:37.009Z,35.38
2017-05-24T13:34:46.640Z,35.48
2017-05-24T13:35:56.562Z,35.38
2017-05-24T13:37:06.785Z,35.28
2017-05-24T13:38:16.716Z,35.38
2017-05-24T13:39:26.659Z,35.28
2017-05-24T13:40:36.733Z,35.48
2017-05-24T13:41:46.652Z,35.28
2017-05-24T13:42:56.585Z,35.38
2017-05-24T13:44:06.807Z,35.28
2017-05-24T13:45:16.720Z,35.28
2017-05-24T13:46:26.651Z,35.38
2017-05-24T13:47:36.263Z,35.38
2017-05-24T13:48:45.867Z,35.19
2017-05-24T13:49:56.093Z,35.38
2017-05-24T13:51:06.005Z,35.38
2017-05-24T13:52:15.972Z,35.38
2017-05-24T13:53:25.592Z,35.38
2017-05-24T13:54:35.520Z,35.28
2017-05-24T13:55:45.433Z,35.38
2017-05-24T13:56:55.047Z,35.19
2017-05-24T13:58:04.977Z,35.38
2017-05-24T13:59:15.197Z,35.48
2017-05-24T14:00:24.813Z,35.28
2017-05-24T14:01:34.773Z,35.19
2017-05-24T14:02:44.697Z,35.28
2017-05-24T14:03:54.322Z,35.28
2017-05-24T14:05:04.252Z,35.28
2017-05-24T14:06:13.867Z,35.38
2017-05-24T14:07:23.782Z,35.28
2017-05-24T14:08:33.711Z,35.28
2017-05-24T14:09:43.677Z,35.38
2017-05-24T14:10:53.612Z,35.28
2017-05-24T14:12:03.542Z,35.38
2017-05-24T14:13:13.465Z,35.38
2017-05-24T14:14:23.383Z,35.28
2017-05-24T14:15:32.705Z,35.28
2017-05-24T14:16:42.347Z,35.38
2017-05-24T14:17:52.010Z,35.48
2017-05-24T14:19:01.627Z,35.38
2017-05-24T14:20:12.007Z,35.28
2017-05-24T14:21:21.613Z,35.38
2017-05-24T14:22:31.534Z,35.38
2017-05-24T14:23:41.758Z,35.28
2017-05-24T14:24:51.694Z,35.19
2017-05-24T14:26:01.998Z,35.38
2017-05-24T14:27:12.237Z,35.38
2017-05-24T14:28:22.175Z,35.28
2017-05-24T14:29:32.397Z,35.28
2017-05-24T14:30:42.621Z,35.28
2017-05-24T14:31:52.859Z,35.28
2017-05-24T14:33:03.092Z,35.19
2017-05-24T14:34:13.343Z,35.19
2017-05-24T14:35:23.265Z,35.28
2017-05-24T14:36:33.497Z,35.19
2017-05-24T14:37:43.824Z,35.38
2017-05-24T14:38:53.456Z,35.38
2017-05-24T14:40:03.700Z,35.38
2017-05-24T14:41:13.926Z,35.28
2017-05-24T14:42:24.162Z,35.28
2017-05-24T14:43:34.245Z,35.28
2017-05-24T14:44:43.865Z,35.28
2017-05-24T14:45:53.786Z,35.38
2017-05-24T14:47:03.723Z,35.38
2017-05-24T14:48:13.655Z,35.38
2017-05-24T14:49:23.683Z,35.38
2017-05-24T14:50:32.983Z,35.28
2017-05-24T14:51:43.224Z,35.38
2017-05-24T14:52:52.838Z,35.38
2017-05-24T14:54:02.767Z,35.28
2017-05-24T14:55:12.728Z,35.28
2017-05-24T14:56:22.653Z,35.38
2017-05-24T14:57:32.571Z,35.38
2017-05-24T14:58:42.506Z,35.38
2017-05-24T14:59:51.832Z,35.28
2017-05-24T15:01:01.154Z,35.38
2017-05-24T15:02:10.774Z,35.28
2017-05-24T15:03:20.082Z,35.38
2017-05-24T15:04:30.028Z,35.38